createdAt,value
2023-05-10T09:14:06.898Z,15900.00
2023-05-10T09:17:28.292Z,19456.00
2023-05-10T09:21:01.932Z,23232.00
2023-05-10T09:22:01.911Z,22560.00
2023-05-10T09:23:01.872Z,20096.00
2023-05-10T10:11:38.406Z,18880.00
2023-05-10T10:12:38.371Z,19680.00
2023-05-10T10:13:38.339Z,20256.00
2023-05-10T10:14:38.330Z,20800.00
2023-05-10T10:15:38.357Z,21312.00
2023-05-10T10:16:45.836Z,21696.00
2023-05-10T10:17:38.361Z,21664.00
2023-05-10T10:18:38.323Z,21984.00
2023-05-10T10:19:38.480Z,21824.00
2023-05-10T10:20:38.254Z,21696.00
2023-05-10T10:21:38.233Z,20864.00
2023-05-10T10:22:38.228Z,20000.00
2023-05-10T10:31:00.019Z,19264.00
2023-05-10T10:31:59.977Z,18816.00
2023-05-10T10:33:55.000Z,20128.00
2023-05-10T10:34:55.003Z,21088.00
2023-05-10T10:35:54.982Z,20928.00
2023-05-10T10:36:54.956Z,20256.00
2023-05-10T10:37:54.935Z,20832.00
2023-05-10T10:38:54.949Z,21536.00
2023-05-10T10:39:54.929Z,21248.00
2023-05-10T10:40:54.905Z,21248.00
2023-05-10T10:41:54.912Z,21216.00
2023-05-10T10:42:54.884Z,21248.00
2023-05-10T10:43:54.880Z,20768.00
2023-05-10T10:44:54.871Z,19040.00
2023-05-10T10:45:54.853Z,15536.00
2023-05-10T10:46:54.896Z,16288.00
2023-05-10T10:47:54.920Z,18720.00
2023-05-10T10:48:54.822Z,21792.00
2023-05-10T10:49:54.782Z,24416.00
2023-05-10T10:50:54.779Z,26752.00
2023-05-10T10:51:54.803Z,27328.00
2023-05-10T10:52:54.813Z,26112.00
2023-05-10T10:53:54.751Z,25728.00
2023-05-10T10:54:54.733Z,26880.00
2023-05-10T10:55:54.713Z,26400.00
2023-05-10T10:56:54.770Z,25664.00
2023-05-10T10:57:54.718Z,23168.00
2023-05-10T10:58:54.813Z,23552.00
2023-05-10T10:59:54.698Z,23648.00
2023-05-10T11:00:54.716Z,21536.00
2023-05-10T11:01:54.649Z,21184.00
2023-05-10T11:02:54.680Z,21728.00
2023-05-10T11:03:54.709Z,20608.00
2023-05-10T11:04:54.649Z,16832.00
2023-05-10T12:31:00.848Z,20384.00
2023-05-10T12:32:00.890Z,20672.00
2023-05-10T12:33:00.828Z,20672.00
2023-05-10T12:34:00.772Z,21024.00
2023-05-10T12:35:00.756Z,21024.00
2023-05-10T12:36:00.727Z,20480.00
2023-05-10T12:37:00.719Z,20096.00
2023-05-10T12:38:00.708Z,20480.00
2023-05-10T12:39:00.678Z,20384.00
2023-05-10T15:29:33.173Z,20064.00
2023-05-10T15:30:33.127Z,23808.00
2023-05-10T15:31:33.131Z,27936.00
2023-05-10T15:32:33.099Z,27296.00
2023-05-10T15:33:33.061Z,21216.00
2023-05-10T15:34:34.931Z,19840.00
2023-05-10T15:39:21.145Z,20384.00
2023-05-10T15:40:21.095Z,28288.00
2023-05-10T15:41:21.128Z,34400.00
2023-05-10T15:42:21.097Z,48064.00
2023-05-10T15:43:21.077Z,56512.00
2023-05-10T15:44:21.056Z,62912.00
2023-05-10T15:45:21.057Z,35936.00
2023-05-10T15:46:21.075Z,23200.00
2023-05-10T15:47:21.036Z,61216.00
2023-05-10T15:48:20.999Z,60864.00
2023-05-10T15:49:20.969Z,61440.00
2023-05-10T15:50:20.957Z,64384.00
2023-05-10T15:51:20.953Z,65856.00
2023-05-10T15:52:20.935Z,63200.00
2023-05-10T15:53:20.939Z,62400.00
2023-05-10T15:54:20.931Z,40480.00
2023-05-10T15:55:20.937Z,29344.00
2023-05-10T15:56:20.895Z,28896.00
2023-05-10T15:57:20.905Z,28416.00
2023-05-10T15:58:20.908Z,27104.00
2023-05-10T15:59:20.895Z,25088.00
2023-05-10T16:00:20.886Z,23904.00
2023-05-10T16:01:20.911Z,24416.00
2023-05-10T16:02:20.946Z,30048.00
2023-05-10T16:03:20.869Z,22144.00
2023-05-10T16:21:52.982Z,29344.00
2023-05-10T16:22:52.876Z,40480.00
2023-05-10T16:23:52.860Z,23168.00
2023-05-10T16:24:52.862Z,19360.00
2023-05-10T16:25:52.853Z,28288.00
2023-05-10T16:26:52.816Z,43936.00
2023-05-10T16:27:52.821Z,44800.00
2023-05-10T16:28:52.861Z,45472.00
2023-05-10T16:29:52.803Z,44640.00
2023-05-10T16:30:53.075Z,43616.00
2023-05-10T16:31:52.792Z,42528.00
2023-05-10T16:32:52.837Z,41088.00
2023-05-10T16:33:52.767Z,31296.00
2023-05-10T16:34:52.759Z,30656.00
2023-05-10T16:35:52.743Z,35296.00
2023-05-10T16:36:52.734Z,32160.00
2023-05-10T16:37:52.707Z,19936.00
2023-05-10T16:38:52.724Z,19616.00
2023-05-10T16:39:52.718Z,23008.00
2023-05-10T16:40:52.708Z,24416.00
2023-05-10T16:44:04.895Z,25568.00
2023-05-10T16:45:04.945Z,25600.00
2023-05-10T16:46:11.935Z,20992.00
2023-05-10T16:47:04.880Z,19552.00
2023-05-10T16:48:04.889Z,20736.00
